Terminal Aerodrome Forecast
Issued by NWS

Home | Current Version | Previous Version | Text Only | Print | Product List | Glossary On
Versions: 1 2 3 4 5 6 7 8 9 10 11 12 13 14 15 16
000
FTUS42 KMLB 221400 AAA
TAFSFB
TAF AMD
KSFB 221434Z 2215/2312 12004KT P6SM SCT060 BKN120
     FM221700 19010KT P6SM VCSH SCT020 BKN050 BKN100
     FM230600 17005KT 4SM BR SCT004 OVC010=

USA.gov is the U.S. government's official web portal to all federal, state and local government web resources and services.